sensor_id;sensor_type;location;lat;lon;timestamp;temperature;humidity
52305;DHT22;38248;52.722;6.734;2022-08-01T00:16:58;18.00;99.90
52305;DHT22;38248;52.722;6.734;2022-08-01T00:19:24;18.00;99.90
52305;DHT22;38248;52.722;6.734;2022-08-01T00:21:54;18.00;99.90
52305;DHT22;38248;52.722;6.734;2022-08-01T00:24:22;17.90;99.90
52305;DHT22;38248;52.722;6.734;2022-08-01T00:26:48;18.00;99.90
52305;DHT22;38248;52.722;6.734;2022-08-01T00:36:08;17.90;99.90
52305;DHT22;38248;52.722;6.734;2022-08-01T00:38:34;17.90;99.90
52305;DHT22;38248;52.722;6.734;2022-08-01T04:15:19;17.30;99.90
52305;DHT22;38248;52.722;6.734;2022-08-01T06:11:10;16.90;99.90
52305;DHT22;38248;52.722;6.734;2022-08-01T06:13:36;16.90;99.90
52305;DHT22;38248;52.722;6.734;2022-08-01T06:16:01;17.00;99.90
52305;DHT22;38248;52.722;6.734;2022-08-01T06:18:28;17.00;99.90
52305;DHT22;38248;52.722;6.734;2022-08-01T06:20:53;17.20;99.90
52305;DHT22;38248;52.722;6.734;2022-08-01T06:23:20;17.40;99.90
52305;DHT22;38248;52.722;6.734;2022-08-01T06:25:53;17.40;99.90
52305;DHT22;38248;52.722;6.734;2022-08-01T06:28:20;17.40;99.90
52305;DHT22;38248;52.722;6.734;2022-08-01T06:30:45;17.40;99.90
52305;DHT22;38248;52.722;6.734;2022-08-01T06:33:13;17.50;99.90
52305;DHT22;38248;52.722;6.734;2022-08-01T06:35:39;17.50;99.90
52305;DHT22;38248;52.722;6.734;2022-08-01T06:38:05;17.40;99.90
52305;DHT22;38248;52.722;6.734;2022-08-01T06:40:30;17.40;99.90
52305;DHT22;38248;52.722;6.734;2022-08-01T06:42:56;17.40;99.90
52305;DHT22;38248;52.722;6.734;2022-08-01T06:45:21;17.40;99.90
52305;DHT22;38248;52.722;6.734;2022-08-01T06:47:52;17.40;99.90
52305;DHT22;38248;52.722;6.734;2022-08-01T06:50:18;17.40;99.90
52305;DHT22;38248;52.722;6.734;2022-08-01T06:52:47;17.40;99.90
52305;DHT22;38248;52.722;6.734;2022-08-01T06:55:13;17.40;99.90
52305;DHT22;38248;52.722;6.734;2022-08-01T06:57:50;17.50;99.90
52305;DHT22;38248;52.722;6.734;2022-08-01T07:00:18;17.60;99.90
52305;DHT22;38248;52.722;6.734;2022-08-01T07:02:46;17.70;99.90
52305;DHT22;38248;52.722;6.734;2022-08-01T07:05:22;17.80;99.90
52305;DHT22;38248;52.722;6.734;2022-08-01T07:07:48;17.90;99.90
52305;DHT22;38248;52.722;6.734;2022-08-01T07:10:14;17.90;99.90
52305;DHT22;38248;52.722;6.734;2022-08-01T07:12:44;18.10;99.90
52305;DHT22;38248;52.722;6.734;2022-08-01T07:15:11;18.00;99.90
52305;DHT22;38248;52.722;6.734;2022-08-01T07:17:40;18.00;99.90
52305;DHT22;38248;52.722;6.734;2022-08-01T07:20:11;18.00;99.90
52305;DHT22;38248;52.722;6.734;2022-08-01T07:22:37;18.10;99.90
52305;DHT22;38248;52.722;6.734;2022-08-01T07:25:05;18.10;99.90
52305;DHT22;38248;52.722;6.734;2022-08-01T07:27:31;18.10;99.90
52305;DHT22;38248;52.722;6.734;2022-08-01T07:29:59;18.10;99.90
52305;DHT22;38248;52.722;6.734;2022-08-01T07:32:25;18.10;99.90
52305;DHT22;38248;52.722;6.734;2022-08-01T07:35:12;18.10;99.90
52305;DHT22;38248;52.722;6.734;2022-08-01T07:37:38;18.10;99.90
52305;DHT22;38248;52.722;6.734;2022-08-01T07:40:04;18.10;99.90
52305;DHT22;38248;52.722;6.734;2022-08-01T07:42:31;18.10;99.90
52305;DHT22;38248;52.722;6.734;2022-08-01T07:44:57;18.10;99.90
52305;DHT22;38248;52.722;6.734;2022-08-01T07:47:26;18.10;99.90
52305;DHT22;38248;52.722;6.734;2022-08-01T07:49:58;18.20;99.90
52305;DHT22;38248;52.722;6.734;2022-08-01T07:52:24;18.20;99.90
52305;DHT22;38248;52.722;6.734;2022-08-01T07:54:49;18.20;99.90
52305;DHT22;38248;52.722;6.734;2022-08-01T07:57:17;18.20;99.90
52305;DHT22;38248;52.722;6.734;2022-08-01T07:59:43;18.20;99.90
52305;DHT22;38248;52.722;6.734;2022-08-01T08:02:08;18.20;99.90
52305;DHT22;38248;52.722;6.734;2022-08-01T08:04:34;18.30;99.90
52305;DHT22;38248;52.722;6.734;2022-08-01T08:07:00;18.30;99.90
52305;DHT22;38248;52.722;6.734;2022-08-01T08:09:25;18.30;99.90
52305;DHT22;38248;52.722;6.734;2022-08-01T08:11:51;18.30;99.90
52305;DHT22;38248;52.722;6.734;2022-08-01T08:14:17;18.30;99.90
52305;DHT22;38248;52.722;6.734;2022-08-01T08:16:43;18.30;99.90
52305;DHT22;38248;52.722;6.734;2022-08-01T08:19:12;18.30;99.90
52305;DHT22;38248;52.722;6.734;2022-08-01T08:21:37;18.30;99.90
52305;DHT22;38248;52.722;6.734;2022-08-01T08:24:03;18.40;99.90
52305;DHT22;38248;52.722;6.734;2022-08-01T08:26:51;18.50;99.90
52305;DHT22;38248;52.722;6.734;2022-08-01T08:29:17;18.60;99.90
52305;DHT22;38248;52.722;6.734;2022-08-01T08:31:43;18.50;99.90
52305;DHT22;38248;52.722;6.734;2022-08-01T08:34:08;18.50;99.90
52305;DHT22;38248;52.722;6.734;2022-08-01T08:36:34;18.60;99.90
52305;DHT22;38248;52.722;6.734;2022-08-01T08:39:00;18.50;99.90
52305;DHT22;38248;52.722;6.734;2022-08-01T08:41:26;18.60;99.90
52305;DHT22;38248;52.722;6.734;2022-08-01T08:43:52;18.60;99.90
52305;DHT22;38248;52.722;6.734;2022-08-01T08:46:18;18.50;99.90
52305;DHT22;38248;52.722;6.734;2022-08-01T08:48:45;18.60;99.90
52305;DHT22;38248;52.722;6.734;2022-08-01T08:51:11;18.60;99.90
52305;DHT22;38248;52.722;6.734;2022-08-01T08:53:40;18.70;99.90
52305;DHT22;38248;52.722;6.734;2022-08-01T08:56:11;18.80;99.90
52305;DHT22;38248;52.722;6.734;2022-08-01T08:58:43;18.90;99.90
52305;DHT22;38248;52.722;6.734;2022-08-01T09:01:11;18.90;99.90
52305;DHT22;38248;52.722;6.734;2022-08-01T09:03:38;19.10;99.90
52305;DHT22;38248;52.722;6.734;2022-08-01T09:06:05;19.30;99.90
52305;DHT22;38248;52.722;6.734;2022-08-01T09:08:31;19.30;99.90
52305;DHT22;38248;52.722;6.734;2022-08-01T09:10:57;19.40;99.90
52305;DHT22;38248;52.722;6.734;2022-08-01T09:13:23;19.40;99.90
52305;DHT22;38248;52.722;6.734;2022-08-01T09:15:51;19.50;99.90
52305;DHT22;38248;52.722;6.734;2022-08-01T09:23:53;19.70;99.90
52305;DHT22;38248;52.722;6.734;2022-08-01T09:26:21;19.80;99.90
52305;DHT22;38248;52.722;6.734;2022-08-01T09:28:54;19.90;99.90
52305;DHT22;38248;52.722;6.734;2022-08-01T09:31:20;20.00;99.90
52305;DHT22;38248;52.722;6.734;2022-08-01T09:34:01;20.10;99.90
52305;DHT22;38248;52.722;6.734;2022-08-01T09:39:18;20.20;99.90
52305;DHT22;38248;52.722;6.734;2022-08-01T09:41:44;20.20;99.90
52305;DHT22;38248;52.722;6.734;2022-08-01T09:44:09;20.20;99.90
52305;DHT22;38248;52.722;6.734;2022-08-01T09:46:35;20.10;99.90
52305;DHT22;38248;52.722;6.734;2022-08-01T09:49:05;20.20;99.90
52305;DHT22;38248;52.722;6.734;2022-08-01T09:51:35;20.30;99.90
52305;DHT22;38248;52.722;6.734;2022-08-01T09:54:02;20.20;99.90
52305;DHT22;38248;52.722;6.734;2022-08-01T09:56:37;20.10;99.90
52305;DHT22;38248;52.722;6.734;2022-08-01T09:59:08;20.10;99.90
52305;DHT22;38248;52.722;6.734;2022-08-01T10:01:48;20.10;99.90
52305;DHT22;38248;52.722;6.734;2022-08-01T10:04:25;20.10;99.90
52305;DHT22;38248;52.722;6.734;2022-08-01T10:07:04;20.10;99.90
52305;DHT22;38248;52.722;6.734;2022-08-01T10:09:32;20.20;99.90
52305;DHT22;38248;52.722;6.734;2022-08-01T10:11:59;20.30;99.90
52305;DHT22;38248;52.722;6.734;2022-08-01T10:14:27;20.50;99.90
52305;DHT22;38248;52.722;6.734;2022-08-01T10:16:54;20.70;99.90
52305;DHT22;38248;52.722;6.734;2022-08-01T10:19:22;20.90;99.90
52305;DHT22;38248;52.722;6.734;2022-08-01T10:21:52;21.00;99.90
52305;DHT22;38248;52.722;6.734;2022-08-01T10:24:23;21.20;99.90
52305;DHT22;38248;52.722;6.734;2022-08-01T10:26:52;21.20;99.90
52305;DHT22;38248;52.722;6.734;2022-08-01T10:29:21;21.30;99.90
52305;DHT22;38248;52.722;6.734;2022-08-01T10:31:48;21.30;99.90
52305;DHT22;38248;52.722;6.734;2022-08-01T10:34:15;21.20;99.90
52305;DHT22;38248;52.722;6.734;2022-08-01T10:36:44;21.30;99.90
52305;DHT22;38248;52.722;6.734;2022-08-01T10:39:11;21.40;99.90
52305;DHT22;38248;52.722;6.734;2022-08-01T10:41:41;21.40;99.90
52305;DHT22;38248;52.722;6.734;2022-08-01T10:44:07;21.40;99.90
52305;DHT22;38248;52.722;6.734;2022-08-01T10:46:37;21.40;99.90
52305;DHT22;38248;52.722;6.734;2022-08-01T10:49:12;21.40;99.00
52305;DHT22;38248;52.722;6.734;2022-08-01T10:51:39;21.40;99.40
52305;DHT22;38248;52.722;6.734;2022-08-01T10:54:07;21.30;99.20
52305;DHT22;38248;52.722;6.734;2022-08-01T10:56:44;21.20;99.90
52305;DHT22;38248;52.722;6.734;2022-08-01T10:59:24;21.30;99.90
52305;DHT22;38248;52.722;6.734;2022-08-01T11:02:01;21.40;99.70
52305;DHT22;38248;52.722;6.734;2022-08-01T11:04:34;21.30;99.40
52305;DHT22;38248;52.722;6.734;2022-08-01T11:07:05;21.20;99.40
52305;DHT22;38248;52.722;6.734;2022-08-01T11:09:47;21.00;99.90
52305;DHT22;38248;52.722;6.734;2022-08-01T11:12:15;21.00;98.90
52305;DHT22;38248;52.722;6.734;2022-08-01T11:17:46;21.30;98.80
52305;DHT22;38248;52.722;6.734;2022-08-01T11:20:32;21.40;98.30
52305;DHT22;38248;52.722;6.734;2022-08-01T11:25:28;21.50;95.20
52305;DHT22;38248;52.722;6.734;2022-08-01T11:33:09;21.70;92.50
52305;DHT22;38248;52.722;6.734;2022-08-01T11:35:36;21.60;92.00
52305;DHT22;38248;52.722;6.734;2022-08-01T11:38:24;21.50;91.80
52305;DHT22;38248;52.722;6.734;2022-08-01T11:41:16;21.50;93.00
52305;DHT22;38248;52.722;6.734;2022-08-01T11:52:07;21.30;92.40
52305;DHT22;38248;52.722;6.734;2022-08-01T11:54:37;21.30;91.90
52305;DHT22;38248;52.722;6.734;2022-08-01T11:57:05;21.40;92.50
52305;DHT22;38248;52.722;6.734;2022-08-01T11:59:42;21.50;92.10
52305;DHT22;38248;52.722;6.734;2022-08-01T12:02:32;21.50;92.80
52305;DHT22;38248;52.722;6.734;2022-08-01T12:05:10;21.50;93.00
52305;DHT22;38248;52.722;6.734;2022-08-01T12:07:40;21.40;92.30
52305;DHT22;38248;52.722;6.734;2022-08-01T12:10:33;21.40;91.90
52305;DHT22;38248;52.722;6.734;2022-08-01T12:13:06;21.40;90.90
52305;DHT22;38248;52.722;6.734;2022-08-01T12:15:34;21.30;90.50
52305;DHT22;38248;52.722;6.734;2022-08-01T12:18:05;21.10;91.10
52305;DHT22;38248;52.722;6.734;2022-08-01T12:20:39;21.00;92.10
52305;DHT22;38248;52.722;6.734;2022-08-01T12:23:11;21.00;92.60
52305;DHT22;38248;52.722;6.734;2022-08-01T12:25:37;21.00;92.50
52305;DHT22;38248;52.722;6.734;2022-08-01T12:28:10;21.20;93.60
52305;DHT22;38248;52.722;6.734;2022-08-01T12:30:38;21.20;93.50
52305;DHT22;38248;52.722;6.734;2022-08-01T12:33:09;21.40;92.80
52305;DHT22;38248;52.722;6.734;2022-08-01T12:35:37;21.50;93.00
52305;DHT22;38248;52.722;6.734;2022-08-01T12:38:14;21.60;93.10
52305;DHT22;38248;52.722;6.734;2022-08-01T12:40:42;21.70;93.00
52305;DHT22;38248;52.722;6.734;2022-08-01T12:43:09;21.80;91.50
52305;DHT22;38248;52.722;6.734;2022-08-01T12:45:40;21.70;90.50
52305;DHT22;38248;52.722;6.734;2022-08-01T12:48:10;21.70;91.50
52305;DHT22;38248;52.722;6.734;2022-08-01T12:50:38;21.50;92.30
52305;DHT22;38248;52.722;6.734;2022-08-01T12:53:04;21.50;92.10
52305;DHT22;38248;52.722;6.734;2022-08-01T12:55:30;21.40;92.60
52305;DHT22;38248;52.722;6.734;2022-08-01T12:58:10;21.50;92.90
52305;DHT22;38248;52.722;6.734;2022-08-01T13:00:38;21.60;92.80
52305;DHT22;38248;52.722;6.734;2022-08-01T13:03:08;21.70;93.00
52305;DHT22;38248;52.722;6.734;2022-08-01T13:05:48;22.00;93.00
52305;DHT22;38248;52.722;6.734;2022-08-01T13:08:33;22.20;91.50
52305;DHT22;38248;52.722;6.734;2022-08-01T13:11:16;22.30;90.90
52305;DHT22;38248;52.722;6.734;2022-08-01T13:13:49;22.30;91.30
52305;DHT22;38248;52.722;6.734;2022-08-01T13:16:17;22.20;90.30
52305;DHT22;38248;52.722;6.734;2022-08-01T13:18:49;21.90;90.10
52305;DHT22;38248;52.722;6.734;2022-08-01T13:21:23;21.70;90.00
52305;DHT22;38248;52.722;6.734;2022-08-01T13:24:09;21.50;90.10
52305;DHT22;38248;52.722;6.734;2022-08-01T13:26:52;21.50;90.00
52305;DHT22;38248;52.722;6.734;2022-08-01T13:31:58;21.80;90.20
52305;DHT22;38248;52.722;6.734;2022-08-01T13:34:34;21.70;89.60
52305;DHT22;38248;52.722;6.734;2022-08-01T13:37:00;21.70;90.00
52305;DHT22;38248;52.722;6.734;2022-08-01T13:39:28;21.80;90.30
52305;DHT22;38248;52.722;6.734;2022-08-01T13:42:11;21.90;90.20
52305;DHT22;38248;52.722;6.734;2022-08-01T13:44:37;22.10;90.80
52305;DHT22;38248;52.722;6.734;2022-08-01T13:47:04;22.30;89.10
52305;DHT22;38248;52.722;6.734;2022-08-01T13:49:30;22.30;87.90
52305;DHT22;38248;52.722;6.734;2022-08-01T13:51:56;22.40;89.30
52305;DHT22;38248;52.722;6.734;2022-08-01T13:54:22;22.60;88.30
52305;DHT22;38248;52.722;6.734;2022-08-01T13:56:49;22.70;86.00
52305;DHT22;38248;52.722;6.734;2022-08-01T13:59:15;22.70;87.80
52305;DHT22;38248;52.722;6.734;2022-08-01T14:01:40;22.60;88.60
52305;DHT22;38248;52.722;6.734;2022-08-01T14:04:06;22.60;89.40
52305;DHT22;38248;52.722;6.734;2022-08-01T14:06:33;22.40;89.20
52305;DHT22;38248;52.722;6.734;2022-08-01T14:09:00;22.60;89.60
52305;DHT22;38248;52.722;6.734;2022-08-01T14:11:26;22.70;89.50
52305;DHT22;38248;52.722;6.734;2022-08-01T14:13:52;23.00;89.70
52305;DHT22;38248;52.722;6.734;2022-08-01T14:16:17;23.20;88.30
52305;DHT22;38248;52.722;6.734;2022-08-01T14:18:43;23.50;88.20
52305;DHT22;38248;52.722;6.734;2022-08-01T14:21:09;23.60;87.10
52305;DHT22;38248;52.722;6.734;2022-08-01T14:23:34;23.70;87.60
52305;DHT22;38248;52.722;6.734;2022-08-01T14:26:00;23.80;86.80
52305;DHT22;38248;52.722;6.734;2022-08-01T14:28:26;24.10;87.60
52305;DHT22;38248;52.722;6.734;2022-08-01T14:30:53;24.00;85.50
52305;DHT22;38248;52.722;6.734;2022-08-01T14:33:21;24.00;86.60
52305;DHT22;38248;52.722;6.734;2022-08-01T14:35:47;23.90;87.10
52305;DHT22;38248;52.722;6.734;2022-08-01T14:38:13;23.90;84.60
52305;DHT22;38248;52.722;6.734;2022-08-01T14:40:38;23.80;85.60
52305;DHT22;38248;52.722;6.734;2022-08-01T14:43:06;23.90;86.20
52305;DHT22;38248;52.722;6.734;2022-08-01T14:45:32;24.00;85.40
52305;DHT22;38248;52.722;6.734;2022-08-01T14:48:01;24.00;84.00
52305;DHT22;38248;52.722;6.734;2022-08-01T14:50:26;24.20;84.40
52305;DHT22;38248;52.722;6.734;2022-08-01T14:52:53;24.70;85.10
52305;DHT22;38248;52.722;6.734;2022-08-01T14:55:19;25.10;84.70
52305;DHT22;38248;52.722;6.734;2022-08-01T14:57:49;25.50;82.90
52305;DHT22;38248;52.722;6.734;2022-08-01T15:00:15;25.60;79.80
52305;DHT22;38248;52.722;6.734;2022-08-01T15:02:41;25.70;78.30
52305;DHT22;38248;52.722;6.734;2022-08-01T15:05:08;25.90;78.50
52305;DHT22;38248;52.722;6.734;2022-08-01T15:07:35;26.10;77.80
52305;DHT22;38248;52.722;6.734;2022-08-01T15:10:01;26.40;78.60
52305;DHT22;38248;52.722;6.734;2022-08-01T15:12:27;26.80;78.30
52305;DHT22;38248;52.722;6.734;2022-08-01T15:14:53;27.00;72.60
52305;DHT22;38248;52.722;6.734;2022-08-01T15:17:24;27.30;73.20
52305;DHT22;38248;52.722;6.734;2022-08-01T15:19:52;27.40;72.90
52305;DHT22;38248;52.722;6.734;2022-08-01T15:22:19;27.40;68.80
52305;DHT22;38248;52.722;6.734;2022-08-01T15:24:47;27.30;70.40
52305;DHT22;38248;52.722;6.734;2022-08-01T15:27:13;27.30;69.40
52305;DHT22;38248;52.722;6.734;2022-08-01T15:29:39;27.10;69.20
52305;DHT22;38248;52.722;6.734;2022-08-01T15:32:06;27.10;68.00
52305;DHT22;38248;52.722;6.734;2022-08-01T15:34:34;26.60;67.90
52305;DHT22;38248;52.722;6.734;2022-08-01T15:37:00;26.00;67.60
52305;DHT22;38248;52.722;6.734;2022-08-01T15:39:26;25.60;68.50
52305;DHT22;38248;52.722;6.734;2022-08-01T15:41:52;25.30;69.40
52305;DHT22;38248;52.722;6.734;2022-08-01T15:44:18;25.10;69.90
52305;DHT22;38248;52.722;6.734;2022-08-01T15:46:46;25.00;69.90
52305;DHT22;38248;52.722;6.734;2022-08-01T15:49:12;24.90;69.40
52305;DHT22;38248;52.722;6.734;2022-08-01T15:51:38;25.00;68.80
52305;DHT22;38248;52.722;6.734;2022-08-01T15:54:04;24.80;68.70
52305;DHT22;38248;52.722;6.734;2022-08-01T15:56:32;24.50;68.90
52305;DHT22;38248;52.722;6.734;2022-08-01T15:58:58;24.20;70.40
52305;DHT22;38248;52.722;6.734;2022-08-01T16:01:24;23.80;70.70
52305;DHT22;38248;52.722;6.734;2022-08-01T16:03:55;23.50;71.50
52305;DHT22;38248;52.722;6.734;2022-08-01T16:06:23;23.20;70.80
52305;DHT22;38248;52.722;6.734;2022-08-01T16:08:50;22.90;73.10
52305;DHT22;38248;52.722;6.734;2022-08-01T16:11:16;22.80;73.80
52305;DHT22;38248;52.722;6.734;2022-08-01T16:13:42;22.70;73.20
52305;DHT22;38248;52.722;6.734;2022-08-01T16:16:11;22.50;74.10
52305;DHT22;38248;52.722;6.734;2022-08-01T16:18:38;22.50;75.50
52305;DHT22;38248;52.722;6.734;2022-08-01T16:21:04;22.40;75.20
52305;DHT22;38248;52.722;6.734;2022-08-01T16:23:32;22.30;75.10
52305;DHT22;38248;52.722;6.734;2022-08-01T16:25:58;22.30;75.10
52305;DHT22;38248;52.722;6.734;2022-08-01T16:28:24;22.20;76.30
52305;DHT22;38248;52.722;6.734;2022-08-01T16:30:50;22.10;76.30
52305;DHT22;38248;52.722;6.734;2022-08-01T16:33:15;22.10;74.90
52305;DHT22;38248;52.722;6.734;2022-08-01T16:35:41;22.00;74.40
52305;DHT22;38248;52.722;6.734;2022-08-01T16:38:10;21.80;75.70
52305;DHT22;38248;52.722;6.734;2022-08-01T16:40:37;21.70;76.70
52305;DHT22;38248;52.722;6.734;2022-08-01T16:43:03;21.70;75.70
52305;DHT22;38248;52.722;6.734;2022-08-01T16:45:29;21.60;76.50
52305;DHT22;38248;52.722;6.734;2022-08-01T16:47:54;21.60;76.90
52305;DHT22;38248;52.722;6.734;2022-08-01T16:50:21;21.60;76.70
52305;DHT22;38248;52.722;6.734;2022-08-01T16:52:47;21.60;75.90
52305;DHT22;38248;52.722;6.734;2022-08-01T16:55:13;21.50;77.70
52305;DHT22;38248;52.722;6.734;2022-08-01T16:57:38;21.50;77.40
52305;DHT22;38248;52.722;6.734;2022-08-01T17:00:12;21.50;77.70
52305;DHT22;38248;52.722;6.734;2022-08-01T17:02:39;21.50;76.30
52305;DHT22;38248;52.722;6.734;2022-08-01T17:05:10;21.60;77.40
52305;DHT22;38248;52.722;6.734;2022-08-01T17:07:35;21.60;77.60
52305;DHT22;38248;52.722;6.734;2022-08-01T17:10:02;21.60;78.30
52305;DHT22;38248;52.722;6.734;2022-08-01T17:12:28;21.60;77.50
52305;DHT22;38248;52.722;6.734;2022-08-01T17:14:54;21.60;76.60
52305;DHT22;38248;52.722;6.734;2022-08-01T17:17:20;21.60;76.10
52305;DHT22;38248;52.722;6.734;2022-08-01T17:19:47;21.60;76.90
52305;DHT22;38248;52.722;6.734;2022-08-01T17:22:12;21.60;76.30
52305;DHT22;38248;52.722;6.734;2022-08-01T17:24:38;21.50;76.90
52305;DHT22;38248;52.722;6.734;2022-08-01T17:27:04;21.40;76.50
52305;DHT22;38248;52.722;6.734;2022-08-01T17:29:31;21.40;76.50
52305;DHT22;38248;52.722;6.734;2022-08-01T17:31:57;21.40;78.00
52305;DHT22;38248;52.722;6.734;2022-08-01T17:34:22;21.40;78.60
52305;DHT22;38248;52.722;6.734;2022-08-01T17:36:48;21.50;78.40
52305;DHT22;38248;52.722;6.734;2022-08-01T17:39:13;21.50;78.00
52305;DHT22;38248;52.722;6.734;2022-08-01T17:41:40;21.40;78.20
52305;DHT22;38248;52.722;6.734;2022-08-01T17:44:06;21.50;78.10
52305;DHT22;38248;52.722;6.734;2022-08-01T17:46:32;21.50;78.10
52305;DHT22;38248;52.722;6.734;2022-08-01T17:48:58;21.40;78.00
52305;DHT22;38248;52.722;6.734;2022-08-01T17:51:26;21.40;78.40
52305;DHT22;38248;52.722;6.734;2022-08-01T17:53:52;21.30;79.30
52305;DHT22;38248;52.722;6.734;2022-08-01T17:56:18;21.40;78.50
52305;DHT22;38248;52.722;6.734;2022-08-01T17:58:44;21.20;77.40
52305;DHT22;38248;52.722;6.734;2022-08-01T18:01:10;21.20;78.30
52305;DHT22;38248;52.722;6.734;2022-08-01T18:03:35;21.00;78.70
52305;DHT22;38248;52.722;6.734;2022-08-01T18:06:01;20.90;79.30
52305;DHT22;38248;52.722;6.734;2022-08-01T18:08:28;20.90;79.60
52305;DHT22;38248;52.722;6.734;2022-08-01T18:10:57;20.90;79.70
52305;DHT22;38248;52.722;6.734;2022-08-01T18:13:24;20.80;80.50
52305;DHT22;38248;52.722;6.734;2022-08-01T18:15:50;20.70;80.10
52305;DHT22;38248;52.722;6.734;2022-08-01T18:18:16;21.00;81.30
52305;DHT22;38248;52.722;6.734;2022-08-01T18:20:45;21.40;81.70
52305;DHT22;38248;52.722;6.734;2022-08-01T18:23:10;21.90;79.80
52305;DHT22;38248;52.722;6.734;2022-08-01T18:25:40;21.80;79.60
52305;DHT22;38248;52.722;6.734;2022-08-01T18:28:06;21.60;79.90
52305;DHT22;38248;52.722;6.734;2022-08-01T18:30:32;21.40;80.40
52305;DHT22;38248;52.722;6.734;2022-08-01T18:32:58;21.10;80.90
52305;DHT22;38248;52.722;6.734;2022-08-01T18:35:24;20.80;81.20
52305;DHT22;38248;52.722;6.734;2022-08-01T18:37:51;20.50;81.40
52305;DHT22;38248;52.722;6.734;2022-08-01T18:40:18;20.30;82.20
52305;DHT22;38248;52.722;6.734;2022-08-01T18:42:43;20.00;82.80
52305;DHT22;38248;52.722;6.734;2022-08-01T18:45:09;19.80;83.60
52305;DHT22;38248;52.722;6.734;2022-08-01T18:47:35;19.60;84.20
52305;DHT22;38248;52.722;6.734;2022-08-01T18:50:01;19.40;84.90
52305;DHT22;38248;52.722;6.734;2022-08-01T18:52:27;19.20;86.00
52305;DHT22;38248;52.722;6.734;2022-08-01T18:54:53;19.10;86.60
52305;DHT22;38248;52.722;6.734;2022-08-01T18:57:18;18.90;87.10
52305;DHT22;38248;52.722;6.734;2022-08-01T18:59:44;18.80;87.90
52305;DHT22;38248;52.722;6.734;2022-08-01T19:02:10;18.60;90.40
52305;DHT22;38248;52.722;6.734;2022-08-01T19:04:36;18.50;91.90
52305;DHT22;38248;52.722;6.734;2022-08-01T19:07:02;18.40;91.80
52305;DHT22;38248;52.722;6.734;2022-08-01T19:09:27;18.40;92.40
52305;DHT22;38248;52.722;6.734;2022-08-01T19:11:53;18.20;92.50
52305;DHT22;38248;52.722;6.734;2022-08-01T19:14:19;18.00;92.60
52305;DHT22;38248;52.722;6.734;2022-08-01T19:16:44;17.80;93.30
52305;DHT22;38248;52.722;6.734;2022-08-01T19:19:10;17.60;93.80
52305;DHT22;38248;52.722;6.734;2022-08-01T19:21:37;17.50;95.70
52305;DHT22;38248;52.722;6.734;2022-08-01T19:24:03;17.40;96.10
52305;DHT22;38248;52.722;6.734;2022-08-01T19:26:52;17.20;96.00
52305;DHT22;38248;52.722;6.734;2022-08-01T19:29:28;17.20;96.00
52305;DHT22;38248;52.722;6.734;2022-08-01T19:31:57;17.00;96.30
52305;DHT22;38248;52.722;6.734;2022-08-01T19:34:23;16.80;96.70
52305;DHT22;38248;52.722;6.734;2022-08-01T19:36:51;16.80;97.30
52305;DHT22;38248;52.722;6.734;2022-08-01T19:39:20;16.70;97.40
52305;DHT22;38248;52.722;6.734;2022-08-01T19:41:49;16.60;98.30
52305;DHT22;38248;52.722;6.734;2022-08-01T19:44:17;16.60;99.40
52305;DHT22;38248;52.722;6.734;2022-08-01T19:46:44;16.40;99.90
52305;DHT22;38248;52.722;6.734;2022-08-01T19:49:17;16.40;99.90
52305;DHT22;38248;52.722;6.734;2022-08-01T19:52:00;16.30;99.90
52305;DHT22;38248;52.722;6.734;2022-08-01T19:54:33;16.30;99.90
52305;DHT22;38248;52.722;6.734;2022-08-01T19:57:01;16.20;99.90
52305;DHT22;38248;52.722;6.734;2022-08-01T19:59:29;16.10;99.90
52305;DHT22;38248;52.722;6.734;2022-08-01T20:01:55;16.00;99.90
52305;DHT22;38248;52.722;6.734;2022-08-01T20:04:25;15.90;99.90
52305;DHT22;38248;52.722;6.734;2022-08-01T20:06:53;15.90;99.90
52305;DHT22;38248;52.722;6.734;2022-08-01T20:09:20;15.90;99.90
52305;DHT22;38248;52.722;6.734;2022-08-01T20:11:48;15.80;99.90
52305;DHT22;38248;52.722;6.734;2022-08-01T20:14:17;15.80;99.90
52305;DHT22;38248;52.722;6.734;2022-08-01T20:16:46;15.70;99.90
52305;DHT22;38248;52.722;6.734;2022-08-01T20:19:12;15.70;99.90
52305;DHT22;38248;52.722;6.734;2022-08-01T20:21:43;15.60;99.90
52305;DHT22;38248;52.722;6.734;2022-08-01T20:24:13;15.50;99.90
52305;DHT22;38248;52.722;6.734;2022-08-01T20:26:39;15.50;99.90
52305;DHT22;38248;52.722;6.734;2022-08-01T20:29:06;15.40;99.90
52305;DHT22;38248;52.722;6.734;2022-08-01T20:31:32;15.30;99.90
52305;DHT22;38248;52.722;6.734;2022-08-01T20:33:58;15.30;99.90
52305;DHT22;38248;52.722;6.734;2022-08-01T20:36:25;15.20;99.90
52305;DHT22;38248;52.722;6.734;2022-08-01T20:38:53;15.20;99.90
52305;DHT22;38248;52.722;6.734;2022-08-01T20:41:22;15.10;99.90
52305;DHT22;38248;52.722;6.734;2022-08-01T20:43:54;15.00;99.90
52305;DHT22;38248;52.722;6.734;2022-08-01T20:46:27;15.00;99.90
52305;DHT22;38248;52.722;6.734;2022-08-01T20:48:54;14.90;99.90
52305;DHT22;38248;52.722;6.734;2022-08-01T20:51:23;14.70;99.90
52305;DHT22;38248;52.722;6.734;2022-08-01T20:53:50;14.70;99.90
52305;DHT22;38248;52.722;6.734;2022-08-01T20:56:45;14.60;99.90
52305;DHT22;38248;52.722;6.734;2022-08-01T20:59:27;14.50;99.90
52305;DHT22;38248;52.722;6.734;2022-08-01T21:02:04;14.30;99.90
52305;DHT22;38248;52.722;6.734;2022-08-01T21:07:19;14.20;99.90
52305;DHT22;38248;52.722;6.734;2022-08-01T21:09:52;14.20;99.90
52305;DHT22;38248;52.722;6.734;2022-08-01T21:12:26;14.20;99.90
52305;DHT22;38248;52.722;6.734;2022-08-01T21:14:55;14.20;99.90
52305;DHT22;38248;52.722;6.734;2022-08-01T21:17:47;14.10;99.90
52305;DHT22;38248;52.722;6.734;2022-08-01T21:20:14;14.00;99.90
52305;DHT22;38248;52.722;6.734;2022-08-01T21:23:04;13.90;99.90
52305;DHT22;38248;52.722;6.734;2022-08-01T21:25:33;13.80;99.90
52305;DHT22;38248;52.722;6.734;2022-08-01T21:28:00;13.70;99.90
52305;DHT22;38248;52.722;6.734;2022-08-01T21:30:29;13.60;99.90
52305;DHT22;38248;52.722;6.734;2022-08-01T21:32:55;13.60;99.90
52305;DHT22;38248;52.722;6.734;2022-08-01T21:35:22;13.50;99.90
52305;DHT22;38248;52.722;6.734;2022-08-01T21:37:50;13.40;99.90
52305;DHT22;38248;52.722;6.734;2022-08-01T21:40:17;13.40;99.90
52305;DHT22;38248;52.722;6.734;2022-08-01T21:42:45;13.30;99.90
52305;DHT22;38248;52.722;6.734;2022-08-01T21:45:11;13.30;99.90
52305;DHT22;38248;52.722;6.734;2022-08-01T21:47:39;13.20;99.90
52305;DHT22;38248;52.722;6.734;2022-08-01T21:50:06;13.20;99.90
52305;DHT22;38248;52.722;6.734;2022-08-01T21:52:42;13.10;99.90
52305;DHT22;38248;52.722;6.734;2022-08-01T21:58:17;13.00;99.90
52305;DHT22;38248;52.722;6.734;2022-08-01T22:00:50;13.00;99.90
52305;DHT22;38248;52.722;6.734;2022-08-01T22:03:40;12.90;99.90
52305;DHT22;38248;52.722;6.734;2022-08-01T22:06:07;12.90;99.90